Kyme — XUPY9 — position and weather

sailwx.info

Track history (hours):
 
Tides and Currents Weather Stations Pressure Air Temp Water Temp Dewpoint Dewpoint Depression Visibility Wind Speed Wind Dir Waves Ship Positions

Kyme

Last reported at 2014-Nov-19 09:13 UTC. Time now 2014-Nov-28 04:16 UTC.
Position N 41°20' E 029°13'.
Warning: this ship's position is 8 days out of date.

Length 114 m; draft 3.1 m.

Type: Cargo ship. MMSI: 514283000.

Date/timePositionNaut miles runAvg speedWind from/ knotsBaromVisibWave heightAir tempDewpointWater temp
2014-Nov-19 09:13N 41°20' E 029°13'5 7.5
2014-Nov-19 08:31N 41°15' E 029°10'  
2014-Nov-12 18:30N 40°44' E 029°41'7 6.3
2014-Nov-12 17:23N 40°45' E 029°32'6 7.0
2014-Nov-12 16:33N 40°45' E 029°24'7 6.8
2014-Nov-12 15:33N 40°47' E 029°16'6 5.7
2014-Nov-12 14:33N 40°52' E 029°12'0 0.0
2014-Nov-12 13:06N 40°52' E 029°12'0 0.0
2014-Nov-12 12:05N 40°52' E 029°12'0 0.0
2014-Nov-12 11:23N 40°52' E 029°12'0 0.0
2014-Nov-12 10:29N 40°52' E 029°12'0 0.0
2014-Nov-12 09:29N 40°52' E 029°12'0 0.0
2014-Nov-12 08:29N 40°52' E 029°12'0 0.0
2014-Nov-12 07:29N 40°52' E 029°12'0 0.0
2014-Nov-12 06:29N 40°52' E 029°12'0 0.0
2014-Nov-12 04:29N 40°52' E 029°12'1 0.7
2014-Nov-12 03:33N 40°51' E 029°12'5 5.2
2014-Nov-12 02:32N 40°51' E 029°05'7 6.9
2014-Nov-12 01:33N 40°57' E 028°60'234 4.6
2014-Nov-09 22:12N 44°48' E 029°50'12 6.2
2014-Nov-09 20:12N 45°00' E 029°55'11 6.4
2014-Nov-09 18:32N 45°11' E 029°58'6 6.2
2014-Nov-09 17:34N 45°16' E 029°60'7 6.1
2014-Nov-09 16:29N 45°23' E 030°02'46 6.6
2014-Nov-09 09:33N 46°04' E 030°31'  
Track history (hours):
 
Tides and Currents Weather Stations Pressure Air Temp Water Temp Dewpoint Dewpoint Depression Visibility Wind Speed Wind Dir Waves Ship Positions

Kyme

Last reported at 2014-Nov-19 09:13 UTC. Time now 2014-Nov-28 04:16 UTC.
Position N 41°20' E 029°13'.
Warning: this ship's position is 8 days out of date.

Length 114 m; draft 3.1 m.

Type: Cargo ship. MMSI: 514283000.

Date/timePositionNaut miles runAvg speedWind from/ knotsBaromVisibWave heightAir tempDewpointWater temp
2014-Nov-19 09:13N 41°20' E 029°13'5 7.5
2014-Nov-19 08:31N 41°15' E 029°10'  
2014-Nov-12 18:30N 40°44' E 029°41'7 6.3
2014-Nov-12 17:23N 40°45' E 029°32'6 7.0
2014-Nov-12 16:33N 40°45' E 029°24'7 6.8
2014-Nov-12 15:33N 40°47' E 029°16'6 5.7
2014-Nov-12 14:33N 40°52' E 029°12'0 0.0
2014-Nov-12 13:06N 40°52' E 029°12'0 0.0
2014-Nov-12 12:05N 40°52' E 029°12'0 0.0
2014-Nov-12 11:23N 40°52' E 029°12'0 0.0
2014-Nov-12 10:29N 40°52' E 029°12'0 0.0
2014-Nov-12 09:29N 40°52' E 029°12'0 0.0
2014-Nov-12 08:29N 40°52' E 029°12'0 0.0
2014-Nov-12 07:29N 40°52' E 029°12'0 0.0
2014-Nov-12 06:29N 40°52' E 029°12'0 0.0
2014-Nov-12 04:29N 40°52' E 029°12'1 0.7
2014-Nov-12 03:33N 40°51' E 029°12'5 5.2
2014-Nov-12 02:32N 40°51' E 029°05'7 6.9
2014-Nov-12 01:33N 40°57' E 028°60'234 4.6
2014-Nov-09 22:12N 44°48' E 029°50'12 6.2
2014-Nov-09 20:12N 45°00' E 029°55'11 6.4
2014-Nov-09 18:32N 45°11' E 029°58'6 6.2
2014-Nov-09 17:34N 45°16' E 029°60'7 6.1
2014-Nov-09 16:29N 45°23' E 030°02'46 6.6
2014-Nov-09 09:33N 46°04' E 030°31'  

Dump ship's entire track history